createdAt,value
2023-05-19T00:02:23.336Z,80.00
2023-05-19T00:04:53.945Z,80.04
2023-05-19T00:07:26.289Z,80.26
2023-05-19T00:09:54.620Z,80.79
2023-05-19T00:12:23.211Z,81.01
2023-05-19T00:14:52.072Z,80.89
2023-05-19T00:17:20.949Z,80.97
2023-05-19T00:19:50.154Z,81.02
2023-05-19T00:22:19.898Z,81.54
2023-05-19T00:24:49.603Z,81.65
2023-05-19T00:27:17.846Z,81.63
2023-05-19T00:29:46.239Z,81.66
2023-05-19T00:32:14.552Z,81.63
2023-05-19T00:34:43.246Z,81.50
2023-05-19T00:37:11.446Z,81.61
2023-05-19T00:39:42.271Z,81.36
2023-05-19T00:42:10.922Z,81.29
2023-05-19T00:44:42.491Z,81.25
2023-05-19T00:47:11.340Z,81.60
2023-05-19T00:49:39.698Z,80.88
2023-05-19T00:52:08.963Z,80.69
2023-05-19T00:54:37.847Z,80.78
2023-05-19T00:57:07.957Z,80.48
2023-05-19T00:59:36.354Z,80.06
2023-05-19T01:02:05.544Z,80.20
2023-05-19T01:04:36.165Z,79.86
2023-05-19T01:07:04.919Z,79.97
2023-05-19T01:09:33.574Z,79.97
2023-05-19T01:12:02.914Z,79.87
2023-05-19T01:14:32.631Z,79.88
2023-05-19T01:17:09.987Z,80.12
2023-05-19T01:19:57.520Z,80.14
2023-05-19T01:22:42.978Z,80.23
2023-05-19T01:25:48.420Z,80.56
2023-05-19T01:28:51.103Z,80.88
2023-05-19T01:31:24.775Z,80.63
2023-05-19T01:33:55.413Z,80.81
2023-05-19T01:36:24.815Z,80.77
2023-05-19T01:38:55.347Z,81.11
2023-05-19T01:41:26.980Z,81.03
2023-05-19T01:43:55.570Z,80.97
2023-05-19T01:46:26.174Z,80.89
2023-05-19T01:48:54.877Z,81.16
2023-05-19T01:51:23.178Z,81.22
2023-05-19T01:53:51.434Z,81.32
2023-05-19T01:56:42.487Z,81.21
2023-05-19T01:59:24.221Z,80.70
2023-05-19T02:01:59.080Z,81.10
2023-05-19T02:04:40.071Z,81.18
2023-05-19T02:07:15.769Z,81.27
2023-05-19T02:09:52.836Z,81.27
2023-05-19T02:12:27.643Z,81.16
2023-05-19T02:15:02.433Z,81.30
2023-05-19T02:17:36.332Z,80.99
2023-05-19T02:20:05.673Z,80.88
2023-05-19T02:22:34.277Z,81.08
2023-05-19T02:25:02.587Z,81.18
2023-05-19T02:27:34.835Z,81.07
2023-05-19T02:30:04.554Z,81.14
2023-05-19T02:32:34.726Z,81.09
2023-05-19T02:35:03.110Z,81.04
2023-05-19T02:37:32.690Z,81.10
2023-05-19T02:40:01.026Z,81.15
2023-05-19T02:42:29.310Z,81.32
2023-05-19T02:44:57.531Z,81.25
2023-05-19T02:47:26.129Z,80.92
2023-05-19T02:49:55.766Z,81.45
2023-05-19T02:52:24.752Z,81.47
2023-05-19T02:54:53.440Z,81.60
2023-05-19T02:57:22.114Z,81.50
2023-05-19T02:59:51.128Z,81.78
2023-05-19T03:02:19.703Z,81.74
2023-05-19T03:04:47.924Z,81.49
2023-05-19T03:07:18.099Z,81.41
2023-05-19T03:09:46.479Z,81.61
2023-05-19T03:12:15.714Z,81.42
2023-05-19T03:14:44.447Z,81.53
2023-05-19T03:17:13.443Z,81.51
2023-05-19T03:19:41.714Z,81.79
2023-05-19T03:22:10.017Z,81.60
2023-05-19T03:24:39.744Z,81.71
2023-05-19T03:27:08.851Z,81.64
2023-05-19T03:29:37.335Z,81.74
2023-05-19T03:32:06.356Z,81.69
2023-05-19T03:34:35.574Z,81.90
2023-05-19T03:37:04.275Z,82.03
2023-05-19T03:39:34.164Z,81.79
2023-05-19T03:42:07.276Z,81.87
2023-05-19T03:44:36.453Z,82.04
2023-05-19T03:47:04.808Z,82.27
2023-05-19T03:49:58.164Z,82.24
2023-05-19T03:52:58.998Z,82.39
2023-05-19T03:55:34.120Z,82.36
2023-05-19T03:58:04.242Z,82.27
2023-05-19T04:00:32.838Z,82.70
2023-05-19T04:03:02.492Z,82.32
2023-05-19T04:05:30.823Z,82.71
2023-05-19T04:07:59.010Z,82.79
2023-05-19T04:10:27.265Z,83.03
2023-05-19T04:12:56.995Z,82.96
2023-05-19T04:15:28.492Z,82.90
2023-05-19T04:17:57.447Z,82.93
2023-05-19T04:20:25.799Z,83.11
2023-05-19T04:22:54.298Z,83.29
2023-05-19T04:25:25.318Z,83.77
2023-05-19T04:27:57.631Z,84.31
2023-05-19T04:30:28.740Z,84.50
2023-05-19T04:32:58.243Z,84.62
2023-05-19T04:35:27.109Z,85.11
2023-05-19T04:37:56.090Z,85.15
2023-05-19T04:40:31.510Z,85.81
2023-05-19T04:43:02.358Z,85.92
2023-05-19T04:45:34.204Z,85.68
2023-05-19T04:48:04.209Z,86.01
2023-05-19T04:50:33.001Z,85.80
2023-05-19T04:53:02.255Z,86.16
2023-05-19T04:55:31.150Z,86.20
2023-05-19T04:57:59.551Z,86.11
2023-05-19T05:00:28.551Z,85.66
2023-05-19T05:03:07.244Z,85.71
2023-05-19T05:05:36.123Z,85.47
2023-05-19T05:08:04.421Z,85.20
2023-05-19T05:10:37.801Z,85.45
2023-05-19T05:13:07.086Z,85.41
2023-05-19T05:15:35.935Z,84.80
2023-05-19T05:18:06.633Z,84.82
2023-05-19T05:20:35.820Z,84.30
2023-05-19T05:23:04.752Z,84.34
2023-05-19T05:25:34.859Z,84.14
2023-05-19T05:28:05.419Z,83.61
2023-05-19T05:30:36.415Z,83.36
2023-05-19T05:33:07.713Z,83.35
2023-05-19T05:35:39.243Z,82.83
2023-05-19T05:38:12.462Z,82.59
2023-05-19T05:40:41.706Z,82.93
2023-05-19T05:43:11.497Z,82.88
2023-05-19T05:45:46.436Z,82.87
2023-05-19T05:48:17.014Z,82.27
2023-05-19T05:50:46.634Z,82.02
2023-05-19T05:53:20.947Z,81.87
2023-05-19T05:55:54.184Z,79.41
2023-05-19T05:58:25.995Z,75.86
2023-05-19T06:00:57.843Z,73.84
2023-05-19T06:03:29.086Z,71.67
2023-05-19T06:06:02.016Z,68.50
2023-05-19T06:08:30.352Z,67.79
2023-05-19T06:10:59.230Z,65.87
2023-05-19T06:13:29.469Z,64.05
2023-05-19T06:15:59.854Z,63.53
2023-05-19T06:18:38.205Z,60.86
2023-05-19T06:21:07.152Z,61.23
2023-05-19T06:23:35.557Z,60.43
2023-05-19T06:26:03.958Z,58.39
2023-05-19T06:28:32.558Z,58.94
2023-05-19T06:31:01.531Z,58.75
2023-05-19T06:33:53.897Z,58.65
2023-05-19T06:36:22.734Z,56.86
2023-05-19T06:38:51.239Z,58.25
2023-05-19T06:41:19.587Z,60.44
2023-05-19T06:43:49.119Z,61.57
2023-05-19T06:46:17.932Z,62.66
2023-05-19T06:48:46.427Z,64.85
2023-05-19T06:51:21.683Z,63.86
2023-05-19T06:53:53.291Z,61.37
2023-05-19T06:56:23.019Z,60.87
2023-05-19T06:58:53.442Z,58.93
2023-05-19T07:01:28.228Z,56.72
2023-05-19T07:03:57.639Z,56.09
2023-05-19T07:06:27.471Z,54.89
2023-05-19T07:08:56.033Z,53.20
2023-05-19T07:11:26.443Z,53.76
2023-05-19T07:13:55.415Z,52.58
2023-05-19T07:16:28.821Z,51.99
2023-05-19T07:18:57.561Z,51.40
2023-05-19T07:21:27.545Z,52.79
2023-05-19T07:23:56.214Z,49.64
2023-05-19T07:26:24.800Z,49.41
2023-05-19T07:28:53.316Z,48.95
2023-05-19T07:31:22.041Z,48.69
2023-05-19T07:33:53.029Z,48.16
2023-05-19T07:36:22.708Z,49.37
2023-05-19T07:38:53.118Z,48.83
2023-05-19T07:41:21.658Z,47.24
2023-05-19T07:43:49.940Z,46.46
2023-05-19T07:46:18.610Z,45.38
2023-05-19T07:48:46.939Z,45.45
2023-05-19T07:51:16.299Z,44.68
2023-05-19T07:53:44.587Z,43.49
2023-05-19T07:56:14.476Z,43.55
2023-05-19T07:58:42.790Z,43.56
2023-05-19T08:01:11.009Z,42.87
2023-05-19T08:03:39.402Z,42.78
2023-05-19T08:06:07.703Z,42.57
2023-05-19T08:08:36.128Z,41.88
2023-05-19T08:11:05.256Z,42.85
2023-05-19T08:13:35.682Z,43.00
2023-05-19T08:16:04.136Z,44.08
2023-05-19T08:18:32.484Z,44.49
2023-05-19T08:21:01.494Z,44.15
2023-05-19T08:23:29.978Z,43.16
2023-05-19T08:25:58.260Z,41.17
2023-05-19T08:28:26.747Z,42.15
2023-05-19T08:30:56.469Z,41.82
2023-05-19T08:33:24.674Z,40.39
2023-05-19T08:35:53.146Z,40.46
2023-05-19T08:38:22.172Z,40.09
2023-05-19T08:40:50.695Z,39.33
2023-05-19T08:43:19.339Z,38.57
2023-05-19T08:45:48.550Z,38.45
2023-05-19T08:48:19.981Z,37.57
2023-05-19T08:50:54.230Z,38.42
2023-05-19T08:56:10.255Z,37.74
2023-05-19T08:58:40.715Z,37.79
2023-05-19T09:01:09.515Z,37.81
2023-05-19T09:03:40.851Z,38.65
2023-05-19T09:06:10.616Z,37.72
2023-05-19T09:08:39.351Z,37.65
2023-05-19T09:11:08.971Z,37.54
2023-05-19T09:13:37.463Z,38.65
2023-05-19T09:16:06.978Z,38.57
2023-05-19T09:18:35.410Z,38.55
2023-05-19T09:21:07.795Z,38.29
2023-05-19T09:23:36.931Z,37.90
2023-05-19T09:26:07.376Z,37.57
2023-05-19T09:28:38.460Z,38.46
2023-05-19T09:31:08.523Z,39.02
2023-05-19T09:33:38.165Z,38.31
2023-05-19T09:36:08.861Z,39.52
2023-05-19T09:38:38.157Z,38.98
2023-05-19T09:41:07.651Z,38.07
2023-05-19T09:43:36.604Z,38.51
2023-05-19T09:46:07.372Z,39.11
2023-05-19T09:48:36.658Z,39.54
2023-05-19T09:51:08.178Z,41.44
2023-05-19T09:53:39.158Z,42.23
2023-05-19T09:56:10.088Z,42.62
2023-05-19T09:58:39.195Z,44.42
2023-05-19T10:01:10.064Z,43.48
2023-05-19T10:03:40.764Z,44.29
2023-05-19T10:06:10.554Z,45.53
2023-05-19T10:08:42.348Z,44.85
2023-05-19T10:11:11.459Z,46.07
2023-05-19T10:13:41.140Z,47.30
2023-05-19T10:16:11.333Z,48.47
2023-05-19T10:18:41.887Z,47.39
2023-05-19T10:21:10.621Z,47.72
2023-05-19T10:23:40.795Z,48.52
2023-05-19T10:26:11.064Z,46.97
2023-05-19T10:28:42.274Z,46.14
2023-05-19T10:31:16.534Z,46.30
2023-05-19T10:34:02.261Z,47.77
2023-05-19T10:36:43.316Z,46.30
2023-05-19T10:39:19.107Z,47.49
2023-05-19T10:41:53.479Z,47.29
2023-05-19T10:44:32.916Z,47.47
2023-05-19T10:47:01.355Z,48.23
2023-05-19T10:49:30.053Z,47.93
2023-05-19T10:51:58.534Z,47.69
2023-05-19T10:54:43.640Z,47.42
2023-05-19T10:57:16.884Z,46.79
2023-05-19T10:59:45.870Z,47.44
2023-05-19T11:02:39.194Z,47.65
2023-05-19T11:05:12.931Z,48.18
2023-05-19T11:07:44.434Z,49.02
2023-05-19T11:10:14.857Z,49.72
2023-05-19T11:12:46.582Z,48.95
2023-05-19T11:15:16.757Z,48.92
2023-05-19T11:17:49.683Z,48.83
2023-05-19T11:20:24.763Z,48.10
2023-05-19T11:23:07.080Z,48.02
2023-05-19T11:25:48.073Z,47.99
2023-05-19T11:28:20.701Z,48.66
2023-05-19T11:30:52.011Z,48.06
2023-05-19T11:33:27.410Z,47.38
2023-05-19T11:35:59.235Z,48.19
2023-05-19T11:38:31.309Z,47.43
2023-05-19T11:41:01.714Z,47.56
2023-05-19T11:43:32.126Z,47.04
2023-05-19T11:46:01.176Z,46.87
2023-05-19T11:48:31.823Z,45.11
2023-05-19T11:51:01.816Z,45.56
2023-05-19T11:53:33.432Z,45.89
2023-05-19T11:56:08.020Z,46.18
2023-05-19T11:58:38.847Z,46.02
2023-05-19T12:01:19.754Z,47.35
2023-05-19T12:03:48.454Z,46.60
2023-05-19T12:06:19.422Z,46.48
2023-05-19T12:08:51.762Z,45.41
2023-05-19T12:11:25.860Z,44.06
2023-05-19T12:14:03.230Z,46.56
2023-05-19T12:16:47.749Z,45.11
2023-05-19T12:19:32.433Z,45.39
2023-05-19T12:22:21.740Z,46.76
2023-05-19T12:24:51.884Z,46.43
2023-05-19T12:27:24.237Z,45.33
2023-05-19T12:29:53.504Z,45.22
2023-05-19T12:32:25.453Z,45.87
2023-05-19T12:34:59.794Z,47.10
2023-05-19T12:37:33.442Z,46.76
2023-05-19T12:40:26.950Z,44.63
2023-05-19T12:43:02.482Z,45.41
2023-05-19T12:45:42.895Z,46.76
2023-05-19T12:48:52.588Z,46.71
2023-05-19T12:51:26.958Z,46.88
2023-05-19T12:53:57.983Z,46.99
2023-05-19T12:56:28.221Z,47.42
2023-05-19T12:59:05.182Z,47.10
2023-05-19T13:01:34.260Z,48.22
2023-05-19T13:04:11.218Z,47.61
2023-05-19T13:06:43.987Z,48.77
2023-05-19T13:09:13.605Z,48.73
2023-05-19T13:13:08.272Z,48.99
2023-05-19T13:14:57.000Z,49.60
2023-05-19T13:17:26.805Z,49.52
2023-05-19T13:19:55.548Z,50.21
2023-05-19T13:22:24.277Z,50.54
2023-05-19T13:24:53.413Z,50.31
2023-05-19T13:27:22.798Z,50.02
2023-05-19T13:29:51.197Z,50.77
2023-05-19T13:32:20.977Z,50.93
2023-05-19T13:34:49.369Z,51.04
2023-05-19T13:37:17.849Z,51.42
2023-05-19T13:39:46.366Z,51.49
2023-05-19T13:42:14.722Z,50.11
2023-05-19T13:44:42.976Z,50.82
2023-05-19T13:47:11.316Z,51.82
2023-05-19T13:49:41.356Z,51.57
2023-05-19T13:52:09.683Z,52.24
2023-05-19T13:54:37.963Z,52.19
2023-05-19T13:57:06.685Z,53.22
2023-05-19T13:59:37.282Z,52.54
2023-05-19T14:02:11.608Z,51.60
2023-05-19T14:04:41.445Z,51.65
2023-05-19T14:07:10.536Z,52.36
2023-05-19T14:09:38.769Z,51.59
2023-05-19T14:12:07.424Z,51.92
2023-05-19T14:14:35.707Z,52.14
2023-05-19T14:17:04.556Z,53.10
2023-05-19T14:19:32.860Z,53.06
2023-05-19T14:22:02.525Z,53.45
2023-05-19T14:24:30.864Z,53.57
2023-05-19T14:26:59.125Z,53.02
2023-05-19T14:29:27.954Z,50.88
2023-05-19T14:31:56.217Z,51.00
2023-05-19T14:34:24.610Z,51.85
2023-05-19T14:36:53.478Z,51.73
2023-05-19T14:39:23.252Z,51.08
2023-05-19T14:41:53.049Z,51.60
2023-05-19T14:44:21.402Z,52.56
2023-05-19T14:46:49.765Z,52.95
2023-05-19T14:49:18.292Z,53.23
2023-05-19T14:51:46.534Z,53.05
2023-05-19T14:54:15.330Z,53.45
2023-05-19T14:56:45.431Z,54.00
2023-05-19T14:59:13.786Z,54.79
2023-05-19T15:01:42.546Z,53.75
2023-05-19T15:04:11.256Z,54.19
2023-05-19T15:06:39.564Z,55.00
2023-05-19T15:09:08.114Z,55.58
2023-05-19T15:11:36.417Z,56.13
2023-05-19T15:14:07.415Z,57.27
2023-05-19T15:16:45.358Z,57.61
2023-05-19T15:19:16.577Z,58.20
2023-05-19T15:21:45.904Z,58.90
2023-05-19T15:24:14.385Z,59.00
2023-05-19T15:26:43.315Z,58.99
2023-05-19T15:29:16.372Z,59.43
2023-05-19T15:31:47.909Z,59.37
2023-05-19T15:34:17.544Z,59.96
2023-05-19T15:36:46.876Z,60.22
2023-05-19T15:39:15.261Z,59.61
2023-05-19T15:41:44.644Z,59.90
2023-05-19T15:44:13.221Z,60.19
2023-05-19T15:46:42.908Z,60.83
2023-05-19T15:49:12.798Z,60.52
2023-05-19T15:51:42.011Z,61.78
2023-05-19T15:54:10.636Z,62.15
2023-05-19T15:56:38.987Z,62.29
2023-05-19T15:59:07.958Z,62.42
2023-05-19T16:01:36.927Z,62.66
2023-05-19T16:04:12.157Z,63.32
2023-05-19T16:06:40.736Z,63.61
2023-05-19T16:09:11.396Z,63.73
2023-05-19T16:11:48.679Z,63.68
2023-05-19T16:14:17.046Z,64.15
2023-05-19T16:16:45.699Z,64.31
2023-05-19T16:19:15.690Z,64.47
2023-05-19T16:21:44.110Z,64.08
2023-05-19T16:24:12.337Z,64.11
2023-05-19T16:26:40.961Z,64.45
2023-05-19T16:29:11.906Z,64.89
2023-05-19T16:31:49.962Z,64.81
2023-05-19T16:34:24.737Z,64.99
2023-05-19T16:36:56.353Z,64.63
2023-05-19T16:39:27.661Z,65.16
2023-05-19T16:42:03.651Z,66.48
2023-05-19T16:44:32.525Z,67.39
2023-05-19T16:47:05.819Z,67.32
2023-05-19T16:49:41.794Z,67.63
2023-05-19T16:52:10.264Z,67.69
2023-05-19T16:54:39.039Z,68.11
2023-05-19T16:57:10.292Z,67.77
2023-05-19T16:59:38.885Z,67.92
2023-05-19T17:02:10.361Z,68.51
2023-05-19T17:04:41.266Z,67.91
2023-05-19T17:07:13.770Z,68.21
2023-05-19T17:09:48.692Z,68.14
2023-05-19T17:12:17.384Z,68.39
2023-05-19T17:14:52.276Z,67.73
2023-05-19T17:17:25.462Z,67.98
2023-05-19T17:19:55.422Z,68.20
2023-05-19T17:22:25.049Z,67.97
2023-05-19T17:24:53.461Z,67.88
2023-05-19T17:27:22.080Z,68.00
2023-05-19T17:29:50.346Z,67.44
2023-05-19T17:32:18.611Z,67.77
2023-05-19T17:34:47.118Z,66.94
2023-05-19T17:37:19.262Z,66.88
2023-05-19T17:39:47.512Z,67.00
2023-05-19T17:42:15.765Z,68.14
2023-05-19T17:44:44.303Z,68.32
2023-05-19T17:47:12.598Z,68.62
2023-05-19T17:49:41.563Z,68.78
2023-05-19T17:52:11.069Z,67.74
2023-05-19T17:54:41.364Z,68.55
2023-05-19T17:57:12.810Z,68.94
2023-05-19T17:59:41.571Z,69.72
2023-05-19T18:02:12.079Z,69.28
2023-05-19T18:04:41.227Z,69.33
2023-05-19T18:07:11.105Z,69.63
2023-05-19T18:09:46.077Z,69.73
2023-05-19T18:12:14.897Z,69.96
2023-05-19T18:14:43.107Z,70.16
2023-05-19T18:17:11.475Z,70.17
2023-05-19T18:19:39.720Z,70.38
2023-05-19T18:22:10.477Z,70.90
2023-05-19T18:24:40.388Z,71.26
2023-05-19T18:27:08.610Z,71.67
2023-05-19T18:29:36.822Z,72.16
2023-05-19T18:32:05.432Z,72.37
2023-05-19T18:34:33.711Z,72.31
2023-05-19T18:37:02.308Z,72.23
2023-05-19T18:39:30.924Z,72.72
2023-05-19T18:42:01.745Z,72.22
2023-05-19T18:44:30.703Z,72.41
2023-05-19T18:46:59.449Z,72.50
2023-05-19T18:49:27.672Z,73.14
2023-05-19T18:51:55.839Z,72.98
2023-05-19T18:54:24.979Z,73.72
2023-05-19T18:56:53.199Z,73.48
2023-05-19T18:59:23.826Z,73.87
2023-05-19T19:01:51.980Z,74.10
2023-05-19T19:04:20.280Z,74.13
2023-05-19T19:06:49.111Z,74.31
2023-05-19T19:09:17.373Z,74.02
2023-05-19T19:11:45.835Z,74.38
2023-05-19T19:14:14.338Z,74.42
2023-05-19T19:16:44.083Z,75.54
2023-05-19T19:19:12.732Z,75.77
2023-05-19T19:21:41.582Z,76.45
2023-05-19T19:24:09.812Z,76.32
2023-05-19T19:26:38.368Z,76.52
2023-05-19T19:29:06.699Z,77.09
2023-05-19T19:31:35.493Z,77.26
2023-05-19T19:34:09.243Z,78.02
2023-05-19T19:36:37.480Z,77.76
2023-05-19T19:39:05.790Z,78.43
2023-05-19T19:41:34.704Z,79.21
2023-05-19T19:44:03.046Z,78.66
2023-05-19T19:46:31.399Z,79.38
2023-05-19T19:49:00.437Z,80.88
2023-05-19T19:51:30.255Z,80.85
2023-05-19T19:53:58.832Z,80.95
2023-05-19T19:56:27.675Z,80.66
2023-05-19T19:58:59.011Z,81.57
2023-05-19T20:01:28.135Z,81.36
2023-05-19T20:03:57.548Z,80.85
2023-05-19T20:06:26.065Z,80.65
2023-05-19T20:08:55.882Z,80.48
2023-05-19T20:11:24.721Z,80.00
2023-05-19T20:13:53.406Z,79.54
2023-05-19T20:16:22.119Z,79.61
2023-05-19T20:18:50.772Z,79.70
2023-05-19T20:21:19.094Z,79.64
2023-05-19T20:23:47.345Z,79.83
2023-05-19T20:26:17.517Z,79.79
2023-05-19T20:28:46.506Z,79.78
2023-05-19T20:31:14.951Z,79.98
2023-05-19T20:33:43.629Z,79.86
2023-05-19T20:36:12.061Z,79.98
2023-05-19T20:38:40.562Z,80.06
2023-05-19T20:41:08.870Z,80.10
2023-05-19T20:43:38.632Z,80.15
2023-05-19T20:46:07.488Z,80.47
2023-05-19T20:48:36.033Z,80.51
2023-05-19T20:51:04.345Z,80.56
2023-05-19T20:53:32.822Z,80.63
2023-05-19T20:56:01.155Z,80.56
2023-05-19T20:58:30.415Z,80.58
2023-05-19T21:01:00.153Z,80.65
2023-05-19T21:03:28.734Z,81.21
2023-05-19T21:05:57.401Z,81.37
2023-05-19T21:08:26.485Z,81.89
2023-05-19T21:10:54.804Z,81.68
2023-05-19T21:13:23.048Z,81.88
2023-05-19T21:15:51.338Z,81.96
2023-05-19T21:18:20.990Z,82.21
2023-05-19T21:20:49.280Z,82.23
2023-05-19T21:23:17.532Z,82.26
2023-05-19T21:25:46.076Z,82.21
2023-05-19T21:28:14.249Z,82.01
2023-05-19T21:30:43.066Z,82.46
2023-05-19T21:33:11.676Z,82.54
2023-05-19T21:35:41.805Z,82.41
2023-05-19T21:38:22.859Z,82.22
2023-05-19T21:40:51.967Z,82.67
2023-05-19T21:43:21.521Z,82.15
2023-05-19T21:45:50.070Z,82.08
2023-05-19T21:48:18.363Z,82.13
2023-05-19T21:50:53.662Z,82.03
2023-05-19T21:53:21.975Z,82.08
2023-05-19T21:55:50.312Z,82.09
2023-05-19T21:58:18.594Z,81.74
2023-05-19T22:00:50.873Z,81.72
2023-05-19T22:03:19.576Z,81.93
2023-05-19T22:05:51.937Z,81.70
2023-05-19T22:08:22.329Z,81.83
2023-05-19T22:10:51.462Z,81.98
2023-05-19T22:13:19.827Z,81.79
2023-05-19T22:15:48.439Z,81.87
2023-05-19T22:18:16.831Z,81.45
2023-05-19T22:20:45.136Z,80.85
2023-05-19T22:23:14.783Z,80.76
2023-05-19T22:25:43.216Z,80.39
2023-05-19T22:28:11.584Z,80.06
2023-05-19T22:30:42.862Z,79.95
2023-05-19T22:33:11.444Z,79.56
2023-05-19T22:35:39.813Z,79.74
2023-05-19T22:38:10.321Z,79.70
2023-05-19T22:40:40.393Z,79.27
2023-05-19T22:43:08.763Z,79.26
2023-05-19T22:45:37.234Z,79.59
2023-05-19T22:48:07.832Z,79.14
2023-05-19T22:50:36.081Z,79.63
2023-05-19T22:53:04.661Z,79.10
2023-05-19T22:55:33.110Z,79.24
2023-05-19T22:58:03.128Z,79.16
2023-05-19T23:00:31.483Z,79.29
2023-05-19T23:03:01.903Z,79.60
2023-05-19T23:05:30.219Z,79.29
2023-05-19T23:07:58.533Z,79.72
2023-05-19T23:10:26.868Z,79.69
2023-05-19T23:12:55.227Z,79.67
2023-05-19T23:15:25.133Z,79.70
2023-05-19T23:17:53.754Z,79.70
2023-05-19T23:20:22.057Z,79.94
2023-05-19T23:22:50.487Z,79.87
2023-05-19T23:25:19.197Z,79.86
2023-05-19T23:27:47.746Z,79.88
2023-05-19T23:30:16.061Z,79.72
2023-05-19T23:32:45.807Z,79.52
2023-05-19T23:35:15.780Z,79.56
2023-05-19T23:37:44.150Z,79.74
2023-05-19T23:40:14.052Z,79.82
2023-05-19T23:42:44.402Z,79.43
2023-05-19T23:45:13.015Z,79.63
2023-05-19T23:47:41.659Z,79.71
2023-05-19T23:50:11.976Z,79.56
2023-05-19T23:52:40.266Z,79.63
2023-05-19T23:55:09.948Z,79.44
2023-05-19T23:57:38.226Z,79.65
